createdAt,value
2022-09-06T00:01:27.993Z,43.28
2022-09-06T00:03:57.062Z,42.33
2022-09-06T00:06:26.149Z,44.90
2022-09-06T00:08:55.159Z,34.95
2022-09-06T00:11:24.184Z,41.55
2022-09-06T00:13:53.253Z,55.05
2022-09-06T00:16:28.455Z,44.97
2022-09-06T00:19:00.664Z,56.80
2022-09-06T00:21:32.019Z,51.90
2022-09-06T00:26:29.772Z,64.38
2022-09-06T00:28:58.896Z,55.80
2022-09-06T00:31:28.902Z,64.47
2022-09-06T00:33:58.003Z,64.35
2022-09-06T00:36:28.463Z,68.18
2022-09-06T00:38:57.614Z,53.73
2022-09-06T00:41:26.847Z,55.55
2022-09-06T00:43:55.921Z,53.95
2022-09-06T00:46:32.939Z,69.15
2022-09-06T00:49:30.969Z,56.88
2022-09-06T00:52:07.585Z,61.65
2022-09-06T00:54:37.364Z,55.38
2022-09-06T00:57:08.141Z,46.80
2022-09-06T00:59:39.564Z,50.90
2022-09-06T01:04:41.744Z,56.78
2022-09-06T01:07:19.770Z,43.67
2022-09-06T01:10:06.004Z,63.03
2022-09-06T01:12:47.420Z,55.88
2022-09-06T01:18:03.099Z,54.42
2022-09-06T01:21:07.862Z,52.88
2022-09-06T01:24:12.828Z,49.05
2022-09-06T01:27:16.283Z,59.80
2022-09-06T01:29:50.019Z,53.97
2022-09-06T01:32:27.761Z,56.75
2022-09-06T01:35:04.957Z,55.97
2022-09-06T01:37:35.672Z,44.65
2022-09-06T01:40:14.349Z,53.45
2022-09-06T01:43:01.483Z,54.13
2022-09-06T01:45:45.034Z,47.03
2022-09-06T01:48:25.869Z,52.88
2022-09-06T01:51:17.611Z,48.10
2022-09-06T01:54:30.263Z,55.90
2022-09-06T01:57:11.425Z,55.38
2022-09-06T02:00:02.284Z,46.67
2022-09-06T02:02:54.855Z,60.92
2022-09-06T02:05:34.398Z,48.15
2022-09-06T02:08:13.809Z,53.80
2022-09-06T02:11:32.859Z,57.45
2022-09-06T02:14:11.369Z,47.20
2022-09-06T02:16:43.279Z,45.08
2022-09-06T02:19:19.148Z,43.65
2022-09-06T02:21:50.511Z,44.78
2022-09-06T02:26:50.671Z,52.85
2022-09-06T02:29:20.339Z,44.65
2022-09-06T02:31:54.740Z,45.33
2022-09-06T02:34:25.320Z,48.53
2022-09-06T02:36:55.606Z,42.55
2022-09-06T02:39:25.023Z,48.70
2022-09-06T02:41:54.826Z,47.15
2022-09-06T02:44:24.021Z,47.10
2022-09-06T02:46:56.940Z,53.15
2022-09-06T02:49:27.817Z,54.25
2022-09-06T02:51:57.114Z,40.80
2022-09-06T02:54:26.287Z,50.40
2022-09-06T02:56:55.273Z,37.30
2022-09-06T02:59:24.266Z,35.85
2022-09-06T03:01:53.422Z,48.15
2022-09-06T03:04:22.562Z,56.47
2022-09-06T03:07:04.872Z,54.50
2022-09-06T03:09:34.070Z,37.03
2022-09-06T03:12:03.222Z,40.78
2022-09-06T03:14:32.251Z,41.55
2022-09-06T03:17:01.965Z,43.80
2022-09-06T03:19:31.129Z,42.63
2022-09-06T03:22:01.584Z,42.92
2022-09-06T03:24:30.685Z,46.60
2022-09-06T03:26:59.714Z,38.08
2022-09-06T03:29:28.739Z,40.45
2022-09-06T03:31:57.749Z,44.03
2022-09-06T03:34:36.394Z,27.98
2022-09-06T03:37:06.835Z,45.05
2022-09-06T03:39:36.023Z,50.77
2022-09-06T03:42:05.299Z,45.45
2022-09-06T03:44:34.346Z,41.92
2022-09-06T03:47:03.433Z,38.63
2022-09-06T03:49:32.449Z,38.15
2022-09-06T03:52:01.547Z,37.80
2022-09-06T03:54:31.957Z,45.53
2022-09-06T03:57:00.985Z,46.90
2022-09-06T03:59:30.026Z,42.28
2022-09-06T04:01:59.124Z,43.70
2022-09-06T04:04:28.201Z,54.97
2022-09-06T04:06:57.314Z,47.38
2022-09-06T04:09:26.405Z,38.90
2022-09-06T04:11:56.827Z,39.83
2022-09-06T04:14:25.889Z,34.85
2022-09-06T04:16:54.961Z,38.47
2022-09-06T04:19:24.107Z,38.00
2022-09-06T04:21:53.163Z,36.00
2022-09-06T04:24:22.185Z,36.20
2022-09-06T04:26:51.236Z,35.97
2022-09-06T04:29:21.679Z,29.00
2022-09-06T04:31:51.781Z,31.90
2022-09-06T04:34:20.937Z,25.58
2022-09-06T04:42:27.503Z,32.72
2022-09-06T04:44:59.164Z,31.13
2022-09-06T04:47:28.472Z,36.38
2022-09-06T04:49:57.513Z,45.22
2022-09-06T04:52:30.056Z,47.03
2022-09-06T04:55:03.840Z,42.45
2022-09-06T04:57:32.996Z,40.38
2022-09-06T05:00:03.791Z,46.90
2022-09-06T05:02:32.909Z,50.25
2022-09-06T05:05:02.018Z,44.80
2022-09-06T05:07:31.096Z,43.85
2022-09-06T05:10:00.148Z,37.38
2022-09-06T05:12:29.376Z,43.63
2022-09-06T05:14:58.424Z,50.97
2022-09-06T05:17:28.962Z,44.28
2022-09-06T05:19:58.026Z,44.27
2022-09-06T05:22:27.026Z,48.85
2022-09-06T05:24:56.060Z,42.78
2022-09-06T05:27:25.188Z,38.50
2022-09-06T05:29:54.262Z,47.63
2022-09-06T05:32:23.275Z,47.15
2022-09-06T05:34:53.733Z,46.55
2022-09-06T05:37:22.761Z,43.23
2022-09-06T05:39:51.910Z,37.88
2022-09-06T05:42:20.966Z,42.05
2022-09-06T05:44:49.999Z,46.85
2022-09-06T05:47:19.095Z,44.22
2022-09-06T05:49:48.158Z,36.90
2022-09-06T05:52:19.904Z,31.70
2022-09-06T05:54:49.109Z,41.60
2022-09-06T05:57:18.148Z,43.20
2022-09-06T05:59:47.187Z,41.45
2022-09-06T06:02:16.315Z,39.30
2022-09-06T06:04:45.378Z,43.17
2022-09-06T06:07:15.634Z,42.63
2022-09-06T06:09:46.097Z,36.58
2022-09-06T06:12:15.178Z,40.47
2022-09-06T06:14:44.187Z,34.97
2022-09-06T06:17:24.443Z,34.25
2022-09-06T06:19:55.378Z,31.35
2022-09-06T06:22:24.588Z,49.20
2022-09-06T06:24:54.999Z,37.28
2022-09-06T06:27:24.127Z,36.80
2022-09-06T06:29:53.203Z,36.33
2022-09-06T06:32:22.284Z,31.35
2022-09-06T06:34:51.329Z,27.60
2022-09-06T06:37:21.549Z,34.72
2022-09-06T06:39:50.630Z,30.35
2022-09-06T06:42:21.027Z,34.83
2022-09-06T06:44:54.550Z,30.23
2022-09-06T06:47:25.523Z,28.50
2022-09-06T06:49:54.649Z,33.67
2022-09-06T06:52:24.474Z,36.25
2022-09-06T06:54:53.560Z,31.70
2022-09-06T06:57:23.966Z,30.40
2022-09-06T06:59:53.051Z,25.03
2022-09-06T07:02:22.082Z,22.70
2022-09-06T07:04:53.049Z,24.75
2022-09-06T07:13:03.484Z,27.50
2022-09-06T07:15:32.768Z,29.05
2022-09-06T07:18:02.302Z,19.45
2022-09-06T07:20:31.421Z,21.55
2022-09-06T07:25:51.566Z,23.58
2022-09-06T07:28:23.646Z,24.20
2022-09-06T07:30:56.123Z,27.80
2022-09-06T07:33:25.315Z,25.38
2022-09-06T07:35:59.704Z,31.30
2022-09-06T07:38:30.195Z,34.00
2022-09-06T07:41:00.794Z,32.87
2022-09-06T07:43:31.702Z,32.80
2022-09-06T07:46:02.127Z,29.38
2022-09-06T07:48:32.353Z,41.42
2022-09-06T07:51:06.154Z,40.75
2022-09-06T07:53:35.979Z,30.90
2022-09-06T07:56:07.984Z,39.72
2022-09-06T07:58:39.650Z,31.95
2022-09-06T08:01:20.494Z,25.45
2022-09-06T08:03:49.642Z,33.33
2022-09-06T08:06:18.937Z,35.67
2022-09-06T08:09:03.200Z,32.65
2022-09-06T08:11:34.062Z,30.60
2022-09-06T08:14:06.176Z,52.15
2022-09-06T08:16:37.219Z,33.95
2022-09-06T08:19:08.872Z,36.05
2022-09-06T08:21:40.084Z,49.35
2022-09-06T08:24:11.321Z,44.92
2022-09-06T08:29:14.159Z,37.80
2022-09-06T08:31:45.698Z,39.85
2022-09-06T08:34:15.408Z,33.95
2022-09-06T08:36:45.519Z,37.45
2022-09-06T08:39:14.601Z,31.33
2022-09-06T08:41:52.158Z,38.08
2022-09-06T08:44:55.121Z,42.00
2022-09-06T08:47:25.943Z,38.75
2022-09-06T08:49:57.918Z,33.95
2022-09-06T08:53:06.237Z,36.42
2022-09-06T08:55:38.520Z,47.83
2022-09-06T08:58:28.461Z,39.53
2022-09-06T09:01:03.311Z,55.53
2022-09-06T09:03:36.729Z,43.70
2022-09-06T09:06:10.374Z,34.97
2022-09-06T09:08:48.132Z,41.25
2022-09-06T09:11:21.375Z,43.42
2022-09-06T09:13:56.880Z,33.08
2022-09-06T09:16:28.142Z,32.28
2022-09-06T09:19:00.407Z,28.48
2022-09-06T09:21:42.809Z,33.65
2022-09-06T09:24:15.791Z,33.70
2022-09-06T09:26:56.185Z,37.75
2022-09-06T09:29:28.650Z,31.45
2022-09-06T09:32:00.190Z,37.95
2022-09-06T09:34:33.399Z,29.52
2022-09-06T09:40:14.439Z,33.83
2022-09-06T09:42:44.087Z,30.70
2022-09-06T09:45:28.403Z,40.00
2022-09-06T09:48:16.790Z,27.67
2022-09-06T09:50:45.930Z,42.17
2022-09-06T09:53:17.187Z,33.88
2022-09-06T09:55:47.205Z,39.67
2022-09-06T09:58:27.098Z,39.00
2022-09-06T10:01:13.002Z,31.65
2022-09-06T10:09:30.848Z,30.52
2022-09-06T10:12:00.745Z,32.92
2022-09-06T10:14:32.908Z,32.78
2022-09-06T10:17:02.137Z,35.15
2022-09-06T10:19:45.749Z,29.65
2022-09-06T10:22:28.604Z,29.38
2022-09-06T10:25:38.496Z,30.10
2022-09-06T10:28:32.605Z,31.60
2022-09-06T10:31:37.964Z,40.70
2022-09-06T10:34:42.778Z,31.95
2022-09-06T10:37:26.380Z,29.63
2022-09-06T10:39:59.159Z,27.73
2022-09-06T10:42:40.266Z,33.63
2022-09-06T10:45:24.035Z,28.85
2022-09-06T10:48:15.011Z,33.08
2022-09-06T10:50:51.132Z,35.97
2022-09-06T10:53:37.590Z,35.38
2022-09-06T10:56:11.411Z,30.60
2022-09-06T11:01:40.295Z,39.38
2022-09-06T11:04:13.303Z,42.85
2022-09-06T11:06:46.676Z,38.05
2022-09-06T11:09:29.664Z,38.97
2022-09-06T11:12:07.994Z,38.78
2022-09-06T11:14:38.626Z,40.53
2022-09-06T11:17:13.067Z,37.15
2022-09-06T11:19:48.819Z,46.58
2022-09-06T11:22:54.176Z,35.90
2022-09-06T11:26:03.302Z,41.97
2022-09-06T11:28:37.274Z,36.17
2022-09-06T11:34:11.550Z,40.30
2022-09-06T11:36:47.615Z,35.67
2022-09-06T11:42:42.839Z,36.95
2022-09-06T11:45:21.589Z,39.80
2022-09-06T11:47:52.107Z,42.08
2022-09-06T11:50:39.990Z,46.97
2022-09-06T11:53:17.059Z,53.17
2022-09-06T11:55:47.691Z,45.38
2022-09-06T11:58:31.278Z,54.78
2022-09-06T12:01:36.729Z,55.17
2022-09-06T12:04:10.678Z,49.78
2022-09-06T12:06:42.950Z,53.33
2022-09-06T12:09:31.787Z,40.05
2022-09-06T12:12:02.359Z,50.65
2022-09-06T12:14:36.019Z,43.97
2022-09-06T12:17:47.855Z,45.22
2022-09-06T12:23:00.597Z,48.92
2022-09-06T12:25:59.001Z,49.13
2022-09-06T12:28:45.281Z,42.28
2022-09-06T12:31:37.877Z,45.33
2022-09-06T12:34:14.649Z,43.45
2022-09-06T12:36:54.013Z,33.15
2022-09-06T12:39:23.608Z,39.05
2022-09-06T12:41:56.385Z,33.88
2022-09-06T12:44:33.885Z,25.77
2022-09-06T12:47:11.098Z,22.40
2022-09-06T12:49:40.281Z,19.95
2022-09-06T12:52:12.395Z,35.95
2022-09-06T12:54:46.941Z,40.20
2022-09-06T12:57:20.232Z,45.28
2022-09-06T12:59:54.942Z,36.30
2022-09-06T13:02:33.038Z,42.38
2022-09-06T13:05:06.604Z,39.50
2022-09-06T13:07:40.118Z,40.42
2022-09-06T13:10:09.833Z,37.38
2022-09-06T13:12:41.754Z,38.53
2022-09-06T13:15:15.805Z,44.10
2022-09-06T13:17:46.583Z,44.08
2022-09-06T13:20:23.178Z,50.50
2022-09-06T13:22:54.306Z,42.38
2022-09-06T13:25:27.281Z,41.85
2022-09-06T13:28:01.665Z,42.58
2022-09-06T13:30:37.197Z,33.05
2022-09-06T13:33:09.206Z,44.83
2022-09-06T13:35:39.635Z,39.28
2022-09-06T13:38:24.190Z,32.50
2022-09-06T13:41:11.496Z,33.17
2022-09-06T13:43:45.128Z,30.00
2022-09-06T13:46:14.892Z,35.03
2022-09-06T13:48:45.382Z,22.95
2022-09-06T13:51:14.485Z,23.90
2022-09-06T13:53:43.800Z,22.23
2022-09-06T13:56:12.931Z,17.13
2022-09-06T13:58:42.103Z,29.27
2022-09-06T14:01:14.344Z,33.67
2022-09-06T14:03:45.027Z,36.83
2022-09-06T14:06:14.107Z,32.00
2022-09-06T14:09:05.786Z,33.47
2022-09-06T14:11:32.351Z,30.38
2022-09-06T14:14:01.499Z,32.25
2022-09-06T14:16:30.957Z,28.02
2022-09-06T14:19:01.484Z,36.55
2022-09-06T14:21:30.598Z,34.93
2022-09-06T14:24:03.925Z,30.15
2022-09-06T14:26:34.172Z,35.78
2022-09-06T14:29:03.530Z,39.83
2022-09-06T14:31:33.523Z,27.15
2022-09-06T14:34:04.319Z,31.67
2022-09-06T14:36:34.290Z,32.47
2022-09-06T14:39:04.110Z,29.23
2022-09-06T14:41:33.669Z,41.42
2022-09-06T14:44:03.006Z,35.63
2022-09-06T14:46:32.195Z,40.80
2022-09-06T14:49:06.223Z,29.55
2022-09-06T14:51:36.898Z,29.48
2022-09-06T14:54:08.988Z,28.17
2022-09-06T14:56:40.054Z,35.53
2022-09-06T14:59:09.686Z,35.05
2022-09-06T15:01:40.025Z,32.20
2022-09-06T15:04:11.819Z,23.10
2022-09-06T15:06:45.020Z,32.33
2022-09-06T15:09:14.340Z,26.73
2022-09-06T15:11:45.623Z,31.95
2022-09-06T15:16:44.865Z,25.27
2022-09-06T15:19:15.509Z,24.92
2022-09-06T15:21:44.561Z,24.80
2022-09-06T15:24:13.764Z,18.83
2022-09-06T15:26:43.924Z,23.55
2022-09-06T15:29:13.977Z,22.13
2022-09-06T15:31:44.979Z,30.90
2022-09-06T15:34:20.789Z,23.67
2022-09-06T15:36:52.957Z,24.17
2022-09-06T15:42:05.573Z,24.75
2022-09-06T15:44:34.716Z,22.55
2022-09-06T15:47:04.781Z,16.50
2022-09-06T15:49:36.444Z,25.50
2022-09-06T15:52:07.759Z,25.00
2022-09-06T15:54:56.783Z,19.55
2022-09-06T15:57:29.504Z,18.90
2022-09-06T16:00:02.560Z,14.93
2022-09-06T16:02:33.571Z,15.68
2022-09-06T16:05:04.143Z,12.48
2022-09-06T16:07:33.438Z,18.73
2022-09-06T16:10:02.492Z,16.33
2022-09-06T16:12:37.336Z,18.45
2022-09-06T16:15:07.585Z,14.32
2022-09-06T16:17:36.776Z,15.57
2022-09-06T16:20:08.238Z,12.70
2022-09-06T16:22:37.877Z,10.02
2022-09-06T16:25:07.615Z,7.68
2022-09-06T16:27:36.928Z,11.60
2022-09-06T16:30:10.131Z,6.97
2022-09-06T16:32:39.566Z,13.90
2022-09-06T16:35:10.860Z,12.95
2022-09-06T16:37:39.930Z,9.13
2022-09-06T16:40:10.696Z,14.65
2022-09-06T16:42:40.003Z,11.10
2022-09-06T16:45:13.037Z,13.00
2022-09-06T16:47:42.056Z,9.15
2022-09-06T16:50:12.585Z,9.30
2022-09-06T16:52:42.193Z,10.07
2022-09-06T16:55:11.337Z,15.30
2022-09-06T16:57:40.434Z,10.50
2022-09-06T17:00:11.392Z,7.18
2022-09-06T17:02:45.102Z,11.57
2022-09-06T17:05:17.676Z,9.70
2022-09-06T17:07:46.760Z,9.73
2022-09-06T17:10:16.246Z,6.93
2022-09-06T17:12:47.183Z,10.13
2022-09-06T17:15:16.695Z,9.38
2022-09-06T17:17:45.011Z,12.20
2022-09-06T17:20:15.912Z,9.27
2022-09-06T17:22:51.245Z,10.02
2022-09-06T17:25:20.375Z,11.60
2022-09-06T17:27:50.732Z,10.18
2022-09-06T17:30:20.455Z,11.00
2022-09-06T17:32:49.543Z,11.00
2022-09-06T17:35:18.565Z,9.23
2022-09-06T17:37:49.151Z,6.65
2022-09-06T17:40:18.335Z,12.33
2022-09-06T17:42:47.461Z,12.95
2022-09-06T17:45:16.762Z,14.43
2022-09-06T17:47:45.965Z,13.48
2022-09-06T17:50:15.502Z,15.05
2022-09-06T17:52:44.638Z,20.45
2022-09-06T17:55:15.174Z,16.40
2022-09-06T17:57:44.219Z,10.80
2022-09-06T18:00:14.785Z,16.35
2022-09-06T18:02:43.842Z,13.30
2022-09-06T18:05:12.956Z,13.02
2022-09-06T18:07:42.141Z,12.38
2022-09-06T18:10:12.524Z,12.55
2022-09-06T18:12:43.004Z,12.55
2022-09-06T18:15:12.489Z,10.53
2022-09-06T18:17:41.624Z,12.10
2022-09-06T18:20:11.153Z,13.38
2022-09-06T18:22:40.301Z,15.80
2022-09-06T18:25:10.060Z,14.38
2022-09-06T18:27:39.139Z,14.57
2022-09-06T18:30:14.741Z,15.63
2022-09-06T18:32:44.854Z,21.98
2022-09-06T18:35:14.056Z,33.42
2022-09-06T18:37:43.368Z,35.25
2022-09-06T18:40:12.877Z,14.07
2022-09-06T18:42:44.425Z,13.35
2022-09-06T18:45:15.029Z,11.02
2022-09-06T18:47:44.859Z,13.77
2022-09-06T18:50:13.886Z,9.77
2022-09-06T18:52:43.241Z,10.30
2022-09-06T18:55:14.727Z,12.52
2022-09-06T18:57:43.881Z,13.43
2022-09-06T19:00:16.017Z,15.35
2022-09-06T19:02:45.437Z,17.00
2022-09-06T19:05:14.633Z,18.25
2022-09-06T19:07:44.033Z,13.68
2022-09-06T19:10:13.298Z,17.77
2022-09-06T19:12:42.355Z,16.73
2022-09-06T19:15:12.362Z,16.23
2022-09-06T19:17:43.068Z,13.70
2022-09-06T19:20:12.299Z,13.85
2022-09-06T19:22:41.591Z,18.15
2022-09-06T19:25:11.280Z,18.38
2022-09-06T19:27:40.572Z,18.80
2022-09-06T19:30:10.788Z,17.90
2022-09-06T19:32:39.966Z,14.70
2022-09-06T19:35:11.031Z,18.63
2022-09-06T19:37:40.535Z,17.10
2022-09-06T19:40:10.827Z,20.00
2022-09-06T19:42:39.926Z,19.27
2022-09-06T19:45:09.829Z,19.80
2022-09-06T19:47:38.900Z,18.13
2022-09-06T19:50:10.261Z,24.33
2022-09-06T19:55:08.734Z,18.83
2022-09-06T19:57:38.867Z,23.60
2022-09-06T20:00:09.300Z,19.15
2022-09-06T20:02:41.298Z,20.85
2022-09-06T20:05:12.109Z,19.75
2022-09-06T20:07:41.343Z,16.13
2022-09-06T20:10:11.307Z,20.25
2022-09-06T20:12:40.508Z,17.65
2022-09-06T20:15:10.671Z,15.88
2022-09-06T20:17:39.735Z,23.58
2022-09-06T20:20:09.808Z,17.00
2022-09-06T20:22:40.308Z,16.67
2022-09-06T20:25:11.969Z,14.70
2022-09-06T20:27:44.437Z,16.73
2022-09-06T20:30:14.388Z,16.65
2022-09-06T20:32:43.655Z,17.15
2022-09-06T20:35:12.765Z,17.70
2022-09-06T20:37:43.509Z,15.55
2022-09-06T20:40:13.997Z,13.48
2022-09-06T20:42:46.028Z,16.13
2022-09-06T20:45:15.447Z,15.75
2022-09-06T20:47:44.663Z,19.58
2022-09-06T20:50:14.127Z,15.98
2022-09-06T20:52:44.872Z,20.55
2022-09-06T20:55:13.960Z,22.33
2022-09-06T20:57:43.088Z,32.10
2022-09-06T21:00:14.453Z,20.65
2022-09-06T21:02:43.741Z,19.17
2022-09-06T21:05:12.884Z,13.55
2022-09-06T21:07:42.008Z,18.38
2022-09-06T21:10:12.599Z,19.48
2022-09-06T21:12:41.677Z,10.70
2022-09-06T21:15:11.410Z,15.65
2022-09-06T21:17:40.467Z,16.88
2022-09-06T21:20:10.531Z,17.50
2022-09-06T21:22:39.575Z,14.38
2022-09-06T21:25:09.448Z,14.38
2022-09-06T21:27:39.984Z,9.02
2022-09-06T21:30:10.440Z,18.63
2022-09-06T21:32:39.535Z,10.02
2022-09-06T21:35:09.263Z,19.25
2022-09-06T21:37:38.564Z,15.68
2022-09-06T21:40:08.882Z,22.42
2022-09-06T21:42:39.449Z,14.70
2022-09-06T21:45:09.219Z,13.65
2022-09-06T21:47:38.894Z,11.40
2022-09-06T21:50:08.524Z,15.30
2022-09-06T21:52:37.754Z,20.48
2022-09-06T21:55:10.310Z,16.88
2022-09-06T21:57:42.819Z,22.38
2022-09-06T22:00:13.175Z,16.80
2022-09-06T22:02:42.711Z,20.23
2022-09-06T22:05:11.756Z,20.35
2022-09-06T22:07:40.815Z,16.42
2022-09-06T22:10:10.447Z,15.02
2022-09-06T22:12:39.761Z,16.33
2022-09-06T22:15:11.300Z,20.50
2022-09-06T22:17:40.469Z,16.08
2022-09-06T22:20:11.972Z,17.63
2022-09-06T22:22:40.998Z,24.02
2022-09-06T22:25:10.599Z,22.25
2022-09-06T22:27:39.789Z,21.52
2022-09-06T22:30:11.331Z,24.30
2022-09-06T22:32:40.675Z,23.55
2022-09-06T22:35:10.577Z,25.50
2022-09-06T22:37:39.669Z,32.00
2022-09-06T22:40:09.980Z,23.63
2022-09-06T22:42:39.031Z,26.25
2022-09-06T22:45:10.507Z,23.25
2022-09-06T22:47:39.589Z,32.60
2022-09-06T22:50:10.102Z,22.70
2022-09-06T22:52:39.180Z,26.70
2022-09-06T22:55:08.677Z,28.33
2022-09-06T22:57:37.701Z,23.55
2022-09-06T23:00:07.963Z,22.20
2022-09-06T23:02:38.518Z,27.05
2022-09-06T23:05:07.988Z,23.53
2022-09-06T23:07:37.044Z,25.90
2022-09-06T23:10:07.043Z,29.17
2022-09-06T23:12:36.131Z,30.25
2022-09-06T23:15:06.001Z,27.05
2022-09-06T23:17:35.062Z,25.33
2022-09-06T23:20:06.084Z,27.00
2022-09-06T23:22:35.137Z,23.75
2022-09-06T23:25:04.600Z,31.42
2022-09-06T23:27:33.918Z,21.08
2022-09-06T23:30:03.744Z,33.33
2022-09-06T23:32:33.204Z,33.30
2022-09-06T23:35:02.251Z,33.45
2022-09-06T23:37:32.932Z,22.40
2022-09-06T23:40:04.759Z,35.47
2022-09-06T23:42:37.431Z,24.48
2022-09-06T23:45:07.281Z,33.40
2022-09-06T23:47:36.502Z,27.63
2022-09-06T23:50:06.825Z,42.50
2022-09-06T23:52:37.366Z,33.25
2022-09-06T23:55:09.372Z,41.57
2022-09-06T23:57:38.431Z,33.45
